sensor_id;sensor_type;location;lat;lon;timestamp;P1;durP1;ratioP1;P2;durP2;ratioP2
5811;SDS011;2932;52.400;9.558;2023-01-04T00:01:30;4.77;;;1.40;;
5811;SDS011;2932;52.400;9.558;2023-01-04T00:03:56;2.87;;;1.27;;
5811;SDS011;2932;52.400;9.558;2023-01-04T00:06:22;3.40;;;1.20;;
5811;SDS011;2932;52.400;9.558;2023-01-04T00:08:47;1.43;;;0.87;;
5811;SDS011;2932;52.400;9.558;2023-01-04T00:11:14;4.47;;;1.50;;
5811;SDS011;2932;52.400;9.558;2023-01-04T00:13:44;3.40;;;1.27;;
5811;SDS011;2932;52.400;9.558;2023-01-04T00:16:14;3.73;;;1.30;;
5811;SDS011;2932;52.400;9.558;2023-01-04T00:18:42;3.17;;;1.23;;
5811;SDS011;2932;52.400;9.558;2023-01-04T00:21:11;3.47;;;1.13;;
5811;SDS011;2932;52.400;9.558;2023-01-04T00:23:39;4.87;;;1.17;;
5811;SDS011;2932;52.400;9.558;2023-01-04T00:26:09;2.37;;;1.10;;
5811;SDS011;2932;52.400;9.558;2023-01-04T00:28:37;3.40;;;1.43;;
5811;SDS011;2932;52.400;9.558;2023-01-04T00:31:03;1.50;;;1.03;;
5811;SDS011;2932;52.400;9.558;2023-01-04T00:33:29;4.63;;;1.20;;
5811;SDS011;2932;52.400;9.558;2023-01-04T00:35:55;8.27;;;1.20;;
5811;SDS011;2932;52.400;9.558;2023-01-04T00:38:26;2.33;;;1.10;;
5811;SDS011;2932;52.400;9.558;2023-01-04T00:40:51;2.43;;;1.07;;
5811;SDS011;2932;52.400;9.558;2023-01-04T00:43:17;2.17;;;1.07;;
5811;SDS011;2932;52.400;9.558;2023-01-04T00:45:42;3.83;;;1.10;;
5811;SDS011;2932;52.400;9.558;2023-01-04T00:48:07;4.27;;;1.33;;
5811;SDS011;2932;52.400;9.558;2023-01-04T00:50:33;3.17;;;1.20;;
5811;SDS011;2932;52.400;9.558;2023-01-04T00:52:58;5.17;;;1.37;;
5811;SDS011;2932;52.400;9.558;2023-01-04T00:55:23;3.50;;;1.20;;
5811;SDS011;2932;52.400;9.558;2023-01-04T00:57:49;1.50;;;1.20;;
5811;SDS011;2932;52.400;9.558;2023-01-04T01:00:14;4.50;;;1.23;;
5811;SDS011;2932;52.400;9.558;2023-01-04T01:02:40;4.70;;;1.40;;
5811;SDS011;2932;52.400;9.558;2023-01-04T01:05:05;1.40;;;1.10;;
5811;SDS011;2932;52.400;9.558;2023-01-04T01:07:31;2.93;;;1.03;;
5811;SDS011;2932;52.400;9.558;2023-01-04T01:09:57;3.47;;;1.30;;
5811;SDS011;2932;52.400;9.558;2023-01-04T01:12:22;3.90;;;1.47;;
5811;SDS011;2932;52.400;9.558;2023-01-04T01:14:47;3.20;;;1.20;;
5811;SDS011;2932;52.400;9.558;2023-01-04T01:17:12;3.13;;;1.30;;
5811;SDS011;2932;52.400;9.558;2023-01-04T01:19:38;3.53;;;1.23;;
5811;SDS011;2932;52.400;9.558;2023-01-04T01:22:03;3.30;;;1.00;;
5811;SDS011;2932;52.400;9.558;2023-01-04T01:24:28;4.73;;;1.43;;
5811;SDS011;2932;52.400;9.558;2023-01-04T01:26:54;1.73;;;1.20;;
5811;SDS011;2932;52.400;9.558;2023-01-04T01:29:19;1.23;;;1.13;;
5811;SDS011;2932;52.400;9.558;2023-01-04T01:31:45;3.67;;;1.27;;
5811;SDS011;2932;52.400;9.558;2023-01-04T01:34:10;4.47;;;1.50;;
5811;SDS011;2932;52.400;9.558;2023-01-04T01:36:35;3.10;;;1.30;;
5811;SDS011;2932;52.400;9.558;2023-01-04T01:39:01;3.23;;;1.23;;
5811;SDS011;2932;52.400;9.558;2023-01-04T01:41:27;3.57;;;1.23;;
5811;SDS011;2932;52.400;9.558;2023-01-04T01:46:25;4.43;;;1.37;;
5811;SDS011;2932;52.400;9.558;2023-01-04T01:49:04;4.23;;;1.30;;
5811;SDS011;2932;52.400;9.558;2023-01-04T01:51:37;2.77;;;1.10;;
5811;SDS011;2932;52.400;9.558;2023-01-04T01:54:05;3.60;;;1.13;;
5811;SDS011;2932;52.400;9.558;2023-01-04T01:56:35;2.83;;;1.63;;
5811;SDS011;2932;52.400;9.558;2023-01-04T01:59:03;4.77;;;1.30;;
5811;SDS011;2932;52.400;9.558;2023-01-04T02:01:30;4.50;;;1.30;;
5811;SDS011;2932;52.400;9.558;2023-01-04T02:03:57;3.37;;;1.63;;
5811;SDS011;2932;52.400;9.558;2023-01-04T02:06:30;2.97;;;1.50;;
5811;SDS011;2932;52.400;9.558;2023-01-04T02:08:58;6.93;;;1.43;;
5811;SDS011;2932;52.400;9.558;2023-01-04T02:11:25;2.93;;;1.30;;
5811;SDS011;2932;52.400;9.558;2023-01-04T02:13:51;2.90;;;1.40;;
5811;SDS011;2932;52.400;9.558;2023-01-04T02:27:08;3.97;;;1.40;;
5811;SDS011;2932;52.400;9.558;2023-01-04T02:35:33;2.13;;;1.10;;
5811;SDS011;2932;52.400;9.558;2023-01-04T02:38:14;3.20;;;1.30;;
5811;SDS011;2932;52.400;9.558;2023-01-04T02:40:45;3.13;;;1.40;;
5811;SDS011;2932;52.400;9.558;2023-01-04T02:43:30;2.83;;;1.23;;
5811;SDS011;2932;52.400;9.558;2023-01-04T02:46:28;1.60;;;1.20;;
5811;SDS011;2932;52.400;9.558;2023-01-04T02:48:59;4.50;;;1.50;;
5811;SDS011;2932;52.400;9.558;2023-01-04T02:51:44;2.33;;;1.57;;
5811;SDS011;2932;52.400;9.558;2023-01-04T02:54:10;4.20;;;1.37;;
5811;SDS011;2932;52.400;9.558;2023-01-04T02:56:52;6.23;;;1.20;;
5811;SDS011;2932;52.400;9.558;2023-01-04T02:59:31;4.27;;;1.00;;
5811;SDS011;2932;52.400;9.558;2023-01-04T03:08:37;2.30;;;1.17;;
5811;SDS011;2932;52.400;9.558;2023-01-04T03:11:11;2.37;;;1.60;;
5811;SDS011;2932;52.400;9.558;2023-01-04T03:14:00;4.90;;;1.73;;
5811;SDS011;2932;52.400;9.558;2023-01-04T03:16:30;2.63;;;1.20;;
5811;SDS011;2932;52.400;9.558;2023-01-04T03:19:00;4.17;;;1.10;;
5811;SDS011;2932;52.400;9.558;2023-01-04T03:21:33;4.00;;;1.27;;
5811;SDS011;2932;52.400;9.558;2023-01-04T03:24:00;5.33;;;1.20;;
5811;SDS011;2932;52.400;9.558;2023-01-04T03:26:47;2.40;;;1.83;;
5811;SDS011;2932;52.400;9.558;2023-01-04T03:29:36;3.60;;;1.30;;
5811;SDS011;2932;52.400;9.558;2023-01-04T03:32:58;3.50;;;1.53;;
5811;SDS011;2932;52.400;9.558;2023-01-04T03:38:13;3.63;;;1.73;;
5811;SDS011;2932;52.400;9.558;2023-01-04T03:41:08;1.57;;;0.90;;
5811;SDS011;2932;52.400;9.558;2023-01-04T03:44:10;5.50;;;1.47;;
5811;SDS011;2932;52.400;9.558;2023-01-04T03:46:58;4.40;;;1.50;;
5811;SDS011;2932;52.400;9.558;2023-01-04T03:49:54;3.97;;;1.47;;
5811;SDS011;2932;52.400;9.558;2023-01-04T03:52:27;3.37;;;1.23;;
5811;SDS011;2932;52.400;9.558;2023-01-04T03:54:55;2.27;;;1.40;;
5811;SDS011;2932;52.400;9.558;2023-01-04T03:57:22;3.83;;;1.27;;
5811;SDS011;2932;52.400;9.558;2023-01-04T03:59:54;6.17;;;1.93;;
5811;SDS011;2932;52.400;9.558;2023-01-04T04:02:29;3.73;;;1.37;;
5811;SDS011;2932;52.400;9.558;2023-01-04T04:04:57;3.27;;;1.50;;
5811;SDS011;2932;52.400;9.558;2023-01-04T04:07:41;3.07;;;1.53;;
5811;SDS011;2932;52.400;9.558;2023-01-04T04:10:25;3.30;;;1.27;;
5811;SDS011;2932;52.400;9.558;2023-01-04T04:12:50;2.27;;;1.23;;
5811;SDS011;2932;52.400;9.558;2023-01-04T04:15:16;3.77;;;1.30;;
5811;SDS011;2932;52.400;9.558;2023-01-04T04:17:42;1.53;;;1.10;;
5811;SDS011;2932;52.400;9.558;2023-01-04T04:20:08;5.47;;;1.70;;
5811;SDS011;2932;52.400;9.558;2023-01-04T04:22:33;1.83;;;1.30;;
5811;SDS011;2932;52.400;9.558;2023-01-04T04:24:59;3.03;;;1.60;;
5811;SDS011;2932;52.400;9.558;2023-01-04T04:27:24;4.50;;;1.50;;
5811;SDS011;2932;52.400;9.558;2023-01-04T04:29:49;3.33;;;2.03;;
5811;SDS011;2932;52.400;9.558;2023-01-04T04:32:15;4.50;;;1.53;;
5811;SDS011;2932;52.400;9.558;2023-01-04T04:34:40;4.23;;;1.50;;
5811;SDS011;2932;52.400;9.558;2023-01-04T04:37:05;5.93;;;1.87;;
5811;SDS011;2932;52.400;9.558;2023-01-04T04:39:31;4.67;;;2.00;;
5811;SDS011;2932;52.400;9.558;2023-01-04T04:41:56;4.53;;;1.47;;
5811;SDS011;2932;52.400;9.558;2023-01-04T04:44:21;4.17;;;1.90;;
5811;SDS011;2932;52.400;9.558;2023-01-04T04:46:47;3.53;;;2.07;;
5811;SDS011;2932;52.400;9.558;2023-01-04T04:49:14;3.50;;;1.50;;
5811;SDS011;2932;52.400;9.558;2023-01-04T04:51:40;4.63;;;1.70;;
5811;SDS011;2932;52.400;9.558;2023-01-04T04:54:07;3.37;;;1.37;;
5811;SDS011;2932;52.400;9.558;2023-01-04T04:56:33;2.83;;;1.53;;
5811;SDS011;2932;52.400;9.558;2023-01-04T04:59:00;3.97;;;1.37;;
5811;SDS011;2932;52.400;9.558;2023-01-04T05:01:26;1.97;;;1.00;;
5811;SDS011;2932;52.400;9.558;2023-01-04T05:03:52;2.30;;;1.00;;
5811;SDS011;2932;52.400;9.558;2023-01-04T05:06:17;3.27;;;1.50;;
5811;SDS011;2932;52.400;9.558;2023-01-04T05:08:42;3.63;;;1.30;;
5811;SDS011;2932;52.400;9.558;2023-01-04T05:11:08;4.63;;;1.73;;
5811;SDS011;2932;52.400;9.558;2023-01-04T05:13:35;2.93;;;1.40;;
5811;SDS011;2932;52.400;9.558;2023-01-04T05:16:01;1.93;;;1.37;;
5811;SDS011;2932;52.400;9.558;2023-01-04T05:18:27;3.10;;;1.27;;
5811;SDS011;2932;52.400;9.558;2023-01-04T05:20:53;1.30;;;1.13;;
5811;SDS011;2932;52.400;9.558;2023-01-04T05:23:19;1.47;;;1.00;;
5811;SDS011;2932;52.400;9.558;2023-01-04T05:25:45;5.13;;;1.60;;
5811;SDS011;2932;52.400;9.558;2023-01-04T05:28:16;1.87;;;1.20;;
5811;SDS011;2932;52.400;9.558;2023-01-04T05:30:41;2.00;;;1.13;;
5811;SDS011;2932;52.400;9.558;2023-01-04T05:33:21;3.07;;;1.30;;
5811;SDS011;2932;52.400;9.558;2023-01-04T05:35:48;3.27;;;1.33;;
5811;SDS011;2932;52.400;9.558;2023-01-04T05:38:14;3.50;;;1.70;;
5811;SDS011;2932;52.400;9.558;2023-01-04T05:40:40;1.80;;;1.40;;
5811;SDS011;2932;52.400;9.558;2023-01-04T05:43:06;2.20;;;1.20;;
5811;SDS011;2932;52.400;9.558;2023-01-04T05:45:31;3.63;;;1.20;;
5811;SDS011;2932;52.400;9.558;2023-01-04T05:47:57;2.30;;;1.20;;
5811;SDS011;2932;52.400;9.558;2023-01-04T05:50:22;3.13;;;1.20;;
5811;SDS011;2932;52.400;9.558;2023-01-04T05:52:48;1.87;;;1.07;;
5811;SDS011;2932;52.400;9.558;2023-01-04T05:55:14;4.20;;;1.50;;
5811;SDS011;2932;52.400;9.558;2023-01-04T05:57:39;1.40;;;1.00;;
5811;SDS011;2932;52.400;9.558;2023-01-04T06:00:05;1.30;;;1.20;;
5811;SDS011;2932;52.400;9.558;2023-01-04T06:02:32;2.40;;;0.90;;
5811;SDS011;2932;52.400;9.558;2023-01-04T06:04:58;3.60;;;1.03;;
5811;SDS011;2932;52.400;9.558;2023-01-04T06:07:24;1.97;;;1.07;;
5811;SDS011;2932;52.400;9.558;2023-01-04T06:09:50;1.80;;;0.77;;
5811;SDS011;2932;52.400;9.558;2023-01-04T06:12:15;2.70;;;1.00;;
5811;SDS011;2932;52.400;9.558;2023-01-04T06:14:41;1.17;;;0.90;;
5811;SDS011;2932;52.400;9.558;2023-01-04T06:17:06;2.07;;;0.80;;
5811;SDS011;2932;52.400;9.558;2023-01-04T06:19:32;3.03;;;1.20;;
5811;SDS011;2932;52.400;9.558;2023-01-04T06:21:58;1.37;;;0.83;;
5811;SDS011;2932;52.400;9.558;2023-01-04T06:24:23;2.10;;;0.90;;
5811;SDS011;2932;52.400;9.558;2023-01-04T06:26:49;3.87;;;1.10;;
5811;SDS011;2932;52.400;9.558;2023-01-04T06:29:15;0.93;;;0.70;;
5811;SDS011;2932;52.400;9.558;2023-01-04T06:31:40;0.83;;;0.83;;
5811;SDS011;2932;52.400;9.558;2023-01-04T06:34:06;1.23;;;0.80;;
5811;SDS011;2932;52.400;9.558;2023-01-04T06:36:31;2.00;;;0.97;;
5811;SDS011;2932;52.400;9.558;2023-01-04T06:38:57;1.30;;;1.00;;
5811;SDS011;2932;52.400;9.558;2023-01-04T06:41:23;1.20;;;1.10;;
5811;SDS011;2932;52.400;9.558;2023-01-04T06:43:48;1.47;;;0.97;;
5811;SDS011;2932;52.400;9.558;2023-01-04T06:46:14;1.00;;;0.80;;
5811;SDS011;2932;52.400;9.558;2023-01-04T06:48:39;0.73;;;0.73;;
5811;SDS011;2932;52.400;9.558;2023-01-04T06:51:05;0.83;;;0.80;;
5811;SDS011;2932;52.400;9.558;2023-01-04T06:53:30;0.73;;;0.73;;
5811;SDS011;2932;52.400;9.558;2023-01-04T06:55:55;0.83;;;0.77;;
5811;SDS011;2932;52.400;9.558;2023-01-04T06:58:21;1.53;;;0.80;;
5811;SDS011;2932;52.400;9.558;2023-01-04T07:00:46;2.07;;;1.00;;
5811;SDS011;2932;52.400;9.558;2023-01-04T07:05:39;1.20;;;0.90;;
5811;SDS011;2932;52.400;9.558;2023-01-04T07:08:04;0.43;;;0.43;;
5811;SDS011;2932;52.400;9.558;2023-01-04T07:10:29;0.47;;;0.47;;
5811;SDS011;2932;52.400;9.558;2023-01-04T07:12:55;1.30;;;1.10;;
5811;SDS011;2932;52.400;9.558;2023-01-04T07:15:20;1.10;;;0.67;;
5811;SDS011;2932;52.400;9.558;2023-01-04T07:17:46;0.40;;;0.40;;
5811;SDS011;2932;52.400;9.558;2023-01-04T07:20:12;0.40;;;0.40;;
5811;SDS011;2932;52.400;9.558;2023-01-04T07:22:38;1.80;;;0.57;;
5811;SDS011;2932;52.400;9.558;2023-01-04T07:25:03;0.97;;;0.50;;
5811;SDS011;2932;52.400;9.558;2023-01-04T07:27:29;0.83;;;0.50;;
5811;SDS011;2932;52.400;9.558;2023-01-04T07:29:54;0.37;;;0.37;;
5811;SDS011;2932;52.400;9.558;2023-01-04T07:32:19;1.33;;;0.40;;
5811;SDS011;2932;52.400;9.558;2023-01-04T07:34:45;0.63;;;0.30;;
5811;SDS011;2932;52.400;9.558;2023-01-04T07:37:10;0.43;;;0.30;;
5811;SDS011;2932;52.400;9.558;2023-01-04T07:39:37;1.57;;;0.30;;
5811;SDS011;2932;52.400;9.558;2023-01-04T07:42:02;0.50;;;0.50;;
5811;SDS011;2932;52.400;9.558;2023-01-04T07:44:27;0.27;;;0.27;;
5811;SDS011;2932;52.400;9.558;2023-01-04T07:46:53;0.70;;;0.50;;
5811;SDS011;2932;52.400;9.558;2023-01-04T07:49:18;0.30;;;0.30;;
5811;SDS011;2932;52.400;9.558;2023-01-04T07:51:45;0.67;;;0.40;;
5811;SDS011;2932;52.400;9.558;2023-01-04T07:54:11;0.63;;;0.53;;
5811;SDS011;2932;52.400;9.558;2023-01-04T07:56:37;0.80;;;0.50;;
5811;SDS011;2932;52.400;9.558;2023-01-04T07:59:06;1.00;;;0.30;;
5811;SDS011;2932;52.400;9.558;2023-01-04T08:01:32;0.30;;;0.30;;
5811;SDS011;2932;52.400;9.558;2023-01-04T08:04:02;0.97;;;0.43;;
5811;SDS011;2932;52.400;9.558;2023-01-04T08:06:31;0.20;;;0.20;;
5811;SDS011;2932;52.400;9.558;2023-01-04T08:08:57;0.50;;;0.50;;
5811;SDS011;2932;52.400;9.558;2023-01-04T08:11:23;0.40;;;0.40;;
5811;SDS011;2932;52.400;9.558;2023-01-04T08:13:49;1.60;;;0.40;;
5811;SDS011;2932;52.400;9.558;2023-01-04T08:16:21;0.67;;;0.40;;
5811;SDS011;2932;52.400;9.558;2023-01-04T08:18:55;0.40;;;0.40;;
5811;SDS011;2932;52.400;9.558;2023-01-04T08:21:23;0.40;;;0.40;;
5811;SDS011;2932;52.400;9.558;2023-01-04T08:23:48;0.97;;;0.40;;
5811;SDS011;2932;52.400;9.558;2023-01-04T08:26:14;0.83;;;0.40;;
5811;SDS011;2932;52.400;9.558;2023-01-04T08:28:41;0.20;;;0.20;;
5811;SDS011;2932;52.400;9.558;2023-01-04T08:31:09;0.40;;;0.40;;
5811;SDS011;2932;52.400;9.558;2023-01-04T08:33:39;0.30;;;0.30;;
5811;SDS011;2932;52.400;9.558;2023-01-04T08:36:10;0.37;;;0.37;;
5811;SDS011;2932;52.400;9.558;2023-01-04T08:38:40;0.40;;;0.40;;
5811;SDS011;2932;52.400;9.558;2023-01-04T08:41:05;0.40;;;0.40;;
5811;SDS011;2932;52.400;9.558;2023-01-04T08:43:31;1.23;;;0.30;;
5811;SDS011;2932;52.400;9.558;2023-01-04T08:45:56;1.27;;;0.50;;
5811;SDS011;2932;52.400;9.558;2023-01-04T08:48:22;1.07;;;0.43;;
5811;SDS011;2932;52.400;9.558;2023-01-04T08:50:47;0.33;;;0.33;;
5811;SDS011;2932;52.400;9.558;2023-01-04T08:53:12;0.77;;;0.57;;
5811;SDS011;2932;52.400;9.558;2023-01-04T08:55:38;0.40;;;0.40;;
5811;SDS011;2932;52.400;9.558;2023-01-04T08:58:03;2.93;;;0.50;;
5811;SDS011;2932;52.400;9.558;2023-01-04T09:00:29;2.17;;;0.43;;
5811;SDS011;2932;52.400;9.558;2023-01-04T09:02:55;1.43;;;0.40;;
5811;SDS011;2932;52.400;9.558;2023-01-04T09:05:20;2.33;;;0.70;;
5811;SDS011;2932;52.400;9.558;2023-01-04T09:07:45;1.20;;;0.30;;
5811;SDS011;2932;52.400;9.558;2023-01-04T09:10:11;0.67;;;0.20;;
5811;SDS011;2932;52.400;9.558;2023-01-04T09:12:36;0.90;;;0.40;;
5811;SDS011;2932;52.400;9.558;2023-01-04T09:15:02;0.63;;;0.30;;
5811;SDS011;2932;52.400;9.558;2023-01-04T09:17:27;0.27;;;0.27;;
5811;SDS011;2932;52.400;9.558;2023-01-04T09:19:53;0.20;;;0.20;;
5811;SDS011;2932;52.400;9.558;2023-01-04T09:22:18;0.30;;;0.30;;
5811;SDS011;2932;52.400;9.558;2023-01-04T09:24:44;0.20;;;0.20;;
5811;SDS011;2932;52.400;9.558;2023-01-04T09:27:10;0.40;;;0.40;;
5811;SDS011;2932;52.400;9.558;2023-01-04T09:29:36;0.30;;;0.30;;
5811;SDS011;2932;52.400;9.558;2023-01-04T09:32:01;0.30;;;0.30;;
5811;SDS011;2932;52.400;9.558;2023-01-04T09:34:27;0.40;;;0.30;;
5811;SDS011;2932;52.400;9.558;2023-01-04T09:36:52;0.37;;;0.37;;
5811;SDS011;2932;52.400;9.558;2023-01-04T09:39:17;0.30;;;0.30;;
5811;SDS011;2932;52.400;9.558;2023-01-04T09:41:54;1.07;;;0.40;;
5811;SDS011;2932;52.400;9.558;2023-01-04T09:49:58;0.23;;;0.20;;
5811;SDS011;2932;52.400;9.558;2023-01-04T09:55:08;0.33;;;0.33;;
5811;SDS011;2932;52.400;9.558;2023-01-04T09:57:42;0.30;;;0.30;;
5811;SDS011;2932;52.400;9.558;2023-01-04T10:00:33;0.53;;;0.40;;
5811;SDS011;2932;52.400;9.558;2023-01-04T10:03:35;0.30;;;0.30;;
5811;SDS011;2932;52.400;9.558;2023-01-04T10:05:55;1.17;;;0.37;;
5811;SDS011;2932;52.400;9.558;2023-01-04T10:08:20;0.30;;;0.30;;
5811;SDS011;2932;52.400;9.558;2023-01-04T10:22:09;0.10;;;0.10;;
5811;SDS011;2932;52.400;9.558;2023-01-04T10:32:44;1.80;;;0.23;;
5811;SDS011;2932;52.400;9.558;2023-01-04T10:35:23;0.20;;;0.20;;
5811;SDS011;2932;52.400;9.558;2023-01-04T10:37:59;0.67;;;0.20;;
5811;SDS011;2932;52.400;9.558;2023-01-04T10:40:26;0.80;;;0.63;;
5811;SDS011;2932;52.400;9.558;2023-01-04T10:45:34;0.20;;;0.20;;
5811;SDS011;2932;52.400;9.558;2023-01-04T10:48:21;0.20;;;0.20;;
5811;SDS011;2932;52.400;9.558;2023-01-04T10:56:04;0.60;;;0.13;;
5811;SDS011;2932;52.400;9.558;2023-01-04T11:01:23;0.20;;;0.20;;
5811;SDS011;2932;52.400;9.558;2023-01-04T11:04:05;0.17;;;0.17;;
5811;SDS011;2932;52.400;9.558;2023-01-04T11:09:20;0.20;;;0.20;;
5811;SDS011;2932;52.400;9.558;2023-01-04T11:11:48;0.10;;;0.10;;
5811;SDS011;2932;52.400;9.558;2023-01-04T11:14:15;0.30;;;0.30;;
5811;SDS011;2932;52.400;9.558;2023-01-04T11:16:42;0.30;;;0.30;;
5811;SDS011;2932;52.400;9.558;2023-01-04T11:19:11;0.10;;;0.10;;
5811;SDS011;2932;52.400;9.558;2023-01-04T11:21:54;0.50;;;0.20;;
5811;SDS011;2932;52.400;9.558;2023-01-04T11:24:25;0.70;;;0.20;;
5811;SDS011;2932;52.400;9.558;2023-01-04T11:26:54;0.20;;;0.20;;
5811;SDS011;2932;52.400;9.558;2023-01-04T11:29:41;0.63;;;0.27;;
5811;SDS011;2932;52.400;9.558;2023-01-04T11:34:59;0.20;;;0.20;;
5811;SDS011;2932;52.400;9.558;2023-01-04T11:42:40;0.20;;;0.20;;
5811;SDS011;2932;52.400;9.558;2023-01-04T11:45:13;0.20;;;0.20;;
5811;SDS011;2932;52.400;9.558;2023-01-04T11:47:52;0.30;;;0.20;;
5811;SDS011;2932;52.400;9.558;2023-01-04T11:50:40;0.77;;;0.20;;
5811;SDS011;2932;52.400;9.558;2023-01-04T11:53:25;0.67;;;0.20;;
5811;SDS011;2932;52.400;9.558;2023-01-04T11:55:51;0.20;;;0.20;;
5811;SDS011;2932;52.400;9.558;2023-01-04T11:58:37;0.33;;;0.10;;
5811;SDS011;2932;52.400;9.558;2023-01-04T12:01:03;0.10;;;0.10;;
5811;SDS011;2932;52.400;9.558;2023-01-04T12:05:56;0.10;;;0.10;;
5811;SDS011;2932;52.400;9.558;2023-01-04T12:11:02;0.50;;;0.20;;
5811;SDS011;2932;52.400;9.558;2023-01-04T12:13:29;0.10;;;0.10;;
5811;SDS011;2932;52.400;9.558;2023-01-04T12:18:38;0.23;;;0.20;;
5811;SDS011;2932;52.400;9.558;2023-01-04T12:21:08;0.83;;;0.20;;
5811;SDS011;2932;52.400;9.558;2023-01-04T12:23:42;0.10;;;0.10;;
5811;SDS011;2932;52.400;9.558;2023-01-04T12:26:09;0.10;;;0.10;;
5811;SDS011;2932;52.400;9.558;2023-01-04T12:28:36;0.37;;;0.20;;
5811;SDS011;2932;52.400;9.558;2023-01-04T12:36:11;0.10;;;0.10;;
5811;SDS011;2932;52.400;9.558;2023-01-04T12:41:21;1.30;;;0.30;;
5811;SDS011;2932;52.400;9.558;2023-01-04T12:43:48;0.20;;;0.20;;
5811;SDS011;2932;52.400;9.558;2023-01-04T12:57:52;0.20;;;0.20;;
5811;SDS011;2932;52.400;9.558;2023-01-04T13:00:17;0.40;;;0.40;;
5811;SDS011;2932;52.400;9.558;2023-01-04T13:02:46;0.20;;;0.20;;
5811;SDS011;2932;52.400;9.558;2023-01-04T13:05:34;0.30;;;0.30;;
5811;SDS011;2932;52.400;9.558;2023-01-04T13:08:01;0.20;;;0.20;;
5811;SDS011;2932;52.400;9.558;2023-01-04T13:10:33;0.20;;;0.20;;
5811;SDS011;2932;52.400;9.558;2023-01-04T13:21:50;0.30;;;0.30;;
5811;SDS011;2932;52.400;9.558;2023-01-04T13:24:35;0.53;;;0.33;;
5811;SDS011;2932;52.400;9.558;2023-01-04T13:27:08;0.93;;;0.30;;
5811;SDS011;2932;52.400;9.558;2023-01-04T13:29:39;0.30;;;0.30;;
5811;SDS011;2932;52.400;9.558;2023-01-04T13:32:09;0.90;;;0.43;;
5811;SDS011;2932;52.400;9.558;2023-01-04T13:34:36;0.70;;;0.40;;
5811;SDS011;2932;52.400;9.558;2023-01-04T13:37:23;0.37;;;0.37;;
5811;SDS011;2932;52.400;9.558;2023-01-04T13:40:10;0.30;;;0.30;;
5811;SDS011;2932;52.400;9.558;2023-01-04T13:42:38;1.23;;;0.40;;
5811;SDS011;2932;52.400;9.558;2023-01-04T13:45:09;1.03;;;0.40;;
5811;SDS011;2932;52.400;9.558;2023-01-04T13:47:39;0.40;;;0.40;;
5811;SDS011;2932;52.400;9.558;2023-01-04T13:50:06;1.37;;;0.40;;
5811;SDS011;2932;52.400;9.558;2023-01-04T13:52:49;0.47;;;0.47;;
5811;SDS011;2932;52.400;9.558;2023-01-04T13:57:50;2.23;;;0.50;;
5811;SDS011;2932;52.400;9.558;2023-01-04T14:00:19;0.40;;;0.40;;
5811;SDS011;2932;52.400;9.558;2023-01-04T14:02:45;0.50;;;0.50;;
5811;SDS011;2932;52.400;9.558;2023-01-04T14:05:16;0.50;;;0.50;;
5811;SDS011;2932;52.400;9.558;2023-01-04T14:07:43;0.50;;;0.50;;
5811;SDS011;2932;52.400;9.558;2023-01-04T14:10:16;0.60;;;0.60;;
5811;SDS011;2932;52.400;9.558;2023-01-04T14:12:43;1.27;;;0.60;;
5811;SDS011;2932;52.400;9.558;2023-01-04T14:30:43;0.80;;;0.80;;
5811;SDS011;2932;52.400;9.558;2023-01-04T14:35:41;2.00;;;1.27;;
5811;SDS011;2932;52.400;9.558;2023-01-04T14:38:11;2.30;;;1.33;;
5811;SDS011;2932;52.400;9.558;2023-01-04T14:40:42;1.60;;;1.50;;
5811;SDS011;2932;52.400;9.558;2023-01-04T14:46:20;3.20;;;1.70;;
5811;SDS011;2932;52.400;9.558;2023-01-04T14:48:46;2.93;;;2.23;;
5811;SDS011;2932;52.400;9.558;2023-01-04T14:51:15;3.33;;;2.13;;
5811;SDS011;2932;52.400;9.558;2023-01-04T14:53:43;1.53;;;1.40;;
5811;SDS011;2932;52.400;9.558;2023-01-04T14:56:12;1.87;;;1.77;;
5811;SDS011;2932;52.400;9.558;2023-01-04T14:58:38;1.70;;;1.60;;
5811;SDS011;2932;52.400;9.558;2023-01-04T15:01:04;2.00;;;1.60;;
5811;SDS011;2932;52.400;9.558;2023-01-04T15:03:29;1.43;;;1.33;;
5811;SDS011;2932;52.400;9.558;2023-01-04T15:05:54;1.20;;;1.10;;
5811;SDS011;2932;52.400;9.558;2023-01-04T15:08:20;1.20;;;1.10;;
5811;SDS011;2932;52.400;9.558;2023-01-04T15:10:46;0.93;;;0.90;;
5811;SDS011;2932;52.400;9.558;2023-01-04T15:13:12;1.60;;;1.50;;
5811;SDS011;2932;52.400;9.558;2023-01-04T15:15:38;0.80;;;0.80;;
5811;SDS011;2932;52.400;9.558;2023-01-04T15:18:03;1.57;;;1.30;;
5811;SDS011;2932;52.400;9.558;2023-01-04T15:20:29;1.20;;;1.10;;
5811;SDS011;2932;52.400;9.558;2023-01-04T15:22:54;1.07;;;1.00;;
5811;SDS011;2932;52.400;9.558;2023-01-04T15:25:19;1.27;;;0.80;;
5811;SDS011;2932;52.400;9.558;2023-01-04T15:27:45;1.70;;;1.57;;
5811;SDS011;2932;52.400;9.558;2023-01-04T15:30:10;2.70;;;1.03;;
5811;SDS011;2932;52.400;9.558;2023-01-04T15:32:36;2.67;;;1.27;;
5811;SDS011;2932;52.400;9.558;2023-01-04T15:35:02;2.47;;;0.90;;
5811;SDS011;2932;52.400;9.558;2023-01-04T15:37:28;1.43;;;1.20;;
5811;SDS011;2932;52.400;9.558;2023-01-04T15:39:53;1.90;;;0.80;;
5811;SDS011;2932;52.400;9.558;2023-01-04T15:42:18;2.73;;;1.20;;
5811;SDS011;2932;52.400;9.558;2023-01-04T15:45:02;1.33;;;0.80;;
5811;SDS011;2932;52.400;9.558;2023-01-04T15:47:29;2.10;;;1.00;;
5811;SDS011;2932;52.400;9.558;2023-01-04T15:49:54;1.97;;;1.07;;
5811;SDS011;2932;52.400;9.558;2023-01-04T15:52:19;1.83;;;0.77;;
5811;SDS011;2932;52.400;9.558;2023-01-04T15:54:45;1.73;;;1.30;;
5811;SDS011;2932;52.400;9.558;2023-01-04T15:57:10;2.10;;;0.80;;
5811;SDS011;2932;52.400;9.558;2023-01-04T15:59:37;2.47;;;0.90;;
5811;SDS011;2932;52.400;9.558;2023-01-04T16:02:03;2.53;;;1.00;;
5811;SDS011;2932;52.400;9.558;2023-01-04T16:04:28;1.43;;;0.93;;
5811;SDS011;2932;52.400;9.558;2023-01-04T16:06:54;1.90;;;1.10;;
5811;SDS011;2932;52.400;9.558;2023-01-04T16:09:19;1.43;;;0.80;;
5811;SDS011;2932;52.400;9.558;2023-01-04T16:11:44;1.47;;;1.00;;
5811;SDS011;2932;52.400;9.558;2023-01-04T16:14:28;4.67;;;1.50;;
5811;SDS011;2932;52.400;9.558;2023-01-04T16:16:54;2.10;;;0.90;;
5811;SDS011;2932;52.400;9.558;2023-01-04T16:19:20;6.40;;;1.10;;
5811;SDS011;2932;52.400;9.558;2023-01-04T16:21:45;3.80;;;0.97;;
5811;SDS011;2932;52.400;9.558;2023-01-04T16:24:11;2.90;;;1.00;;
5811;SDS011;2932;52.400;9.558;2023-01-04T16:26:36;3.87;;;0.90;;
5811;SDS011;2932;52.400;9.558;2023-01-04T16:29:02;3.90;;;1.03;;
5811;SDS011;2932;52.400;9.558;2023-01-04T16:31:31;2.23;;;1.07;;
5811;SDS011;2932;52.400;9.558;2023-01-04T16:34:01;5.57;;;1.00;;
5811;SDS011;2932;52.400;9.558;2023-01-04T16:36:26;6.33;;;1.30;;
5811;SDS011;2932;52.400;9.558;2023-01-04T16:38:52;4.20;;;1.63;;
5811;SDS011;2932;52.400;9.558;2023-01-04T16:41:18;3.20;;;1.00;;
5811;SDS011;2932;52.400;9.558;2023-01-04T16:43:46;3.40;;;1.20;;
5811;SDS011;2932;52.400;9.558;2023-01-04T16:46:32;3.37;;;1.10;;
5811;SDS011;2932;52.400;9.558;2023-01-04T16:49:00;2.00;;;1.03;;
5811;SDS011;2932;52.400;9.558;2023-01-04T16:51:27;2.67;;;0.90;;
5811;SDS011;2932;52.400;9.558;2023-01-04T16:53:54;4.80;;;1.10;;
5811;SDS011;2932;52.400;9.558;2023-01-04T16:56:21;2.37;;;0.70;;
5811;SDS011;2932;52.400;9.558;2023-01-04T16:58:48;2.87;;;1.33;;
5811;SDS011;2932;52.400;9.558;2023-01-04T17:01:18;4.57;;;1.50;;
5811;SDS011;2932;52.400;9.558;2023-01-04T17:03:48;3.17;;;1.20;;
5811;SDS011;2932;52.400;9.558;2023-01-04T17:06:15;2.00;;;0.90;;
5811;SDS011;2932;52.400;9.558;2023-01-04T17:08:42;2.70;;;1.10;;
5811;SDS011;2932;52.400;9.558;2023-01-04T17:11:10;3.83;;;1.00;;
5811;SDS011;2932;52.400;9.558;2023-01-04T17:13:41;2.37;;;0.83;;
5811;SDS011;2932;52.400;9.558;2023-01-04T17:16:06;3.30;;;0.83;;
5811;SDS011;2932;52.400;9.558;2023-01-04T17:18:33;0.70;;;0.47;;
5811;SDS011;2932;52.400;9.558;2023-01-04T17:21:00;1.60;;;0.80;;
5811;SDS011;2932;52.400;9.558;2023-01-04T17:23:28;3.63;;;1.00;;
5811;SDS011;2932;52.400;9.558;2023-01-04T17:25:57;3.23;;;1.30;;
5811;SDS011;2932;52.400;9.558;2023-01-04T17:28:24;2.87;;;1.00;;
5811;SDS011;2932;52.400;9.558;2023-01-04T17:30:50;6.67;;;1.30;;
5811;SDS011;2932;52.400;9.558;2023-01-04T17:33:15;3.70;;;1.03;;
5811;SDS011;2932;52.400;9.558;2023-01-04T17:35:40;3.37;;;1.10;;
5811;SDS011;2932;52.400;9.558;2023-01-04T17:38:06;3.60;;;0.90;;
5811;SDS011;2932;52.400;9.558;2023-01-04T17:40:31;6.40;;;1.03;;
5811;SDS011;2932;52.400;9.558;2023-01-04T17:42:58;1.60;;;0.83;;
5811;SDS011;2932;52.400;9.558;2023-01-04T17:45:23;4.00;;;1.10;;